createdAt,value
2023-08-11T00:00:31.387Z,0.90
2023-08-11T00:02:51.697Z,0.93
2023-08-11T00:05:11.893Z,0.90
2023-08-11T00:07:31.801Z,0.90
2023-08-11T00:09:51.793Z,0.93
2023-08-11T00:12:11.550Z,0.80
2023-08-11T00:14:32.086Z,1.08
2023-08-11T00:16:52.140Z,0.90
2023-08-11T00:19:11.821Z,0.90
2023-08-11T00:21:31.531Z,2.00
2023-08-11T00:23:51.728Z,1.10
2023-08-11T00:26:11.838Z,1.00
2023-08-11T00:28:32.284Z,0.90
2023-08-11T00:30:52.123Z,0.98
2023-08-11T00:33:12.296Z,1.10
2023-08-11T00:35:32.168Z,0.98
2023-08-11T00:37:52.190Z,0.98
2023-08-11T00:40:12.494Z,0.90
2023-08-11T00:42:32.412Z,0.90
2023-08-11T00:44:52.684Z,1.10
2023-08-11T00:47:13.147Z,1.00
2023-08-11T00:49:33.632Z,0.98
2023-08-11T00:51:53.833Z,1.08
2023-08-11T00:54:15.399Z,1.10
2023-08-11T00:56:35.633Z,1.08
2023-08-11T00:58:56.098Z,0.90
2023-08-11T01:01:16.302Z,1.00
2023-08-11T01:03:36.271Z,1.10
2023-08-11T01:06:38.545Z,1.20
2023-08-11T01:09:27.599Z,1.10
2023-08-11T01:12:10.270Z,1.00
2023-08-11T01:14:45.013Z,1.03
2023-08-11T01:17:10.136Z,1.00
2023-08-11T01:19:34.658Z,1.55
2023-08-11T01:21:59.135Z,0.90
2023-08-11T01:24:19.444Z,1.13
2023-08-11T01:26:39.250Z,0.95
2023-08-11T01:28:58.942Z,1.00
2023-08-11T01:31:19.266Z,0.90
2023-08-11T01:33:39.479Z,1.00
2023-08-11T01:35:59.643Z,1.10
2023-08-11T01:38:19.417Z,1.20
2023-08-11T01:40:40.001Z,1.00
2023-08-11T01:43:03.016Z,1.00
2023-08-11T01:45:24.099Z,1.20
2023-08-11T01:47:47.410Z,1.02
2023-08-11T01:50:08.918Z,0.90
2023-08-11T01:52:32.091Z,1.05
2023-08-11T01:54:51.709Z,1.38
2023-08-11T01:57:11.936Z,1.05
2023-08-11T01:59:31.733Z,0.93
2023-08-11T02:01:52.535Z,1.52
2023-08-11T02:04:13.342Z,0.90
2023-08-11T02:06:33.281Z,0.98
2023-08-11T02:08:52.880Z,1.10
2023-08-11T02:11:13.665Z,1.20
2023-08-11T02:13:33.536Z,1.20
2023-08-11T02:15:53.879Z,1.08
2023-08-11T02:18:14.017Z,1.10
2023-08-11T02:20:34.098Z,1.15
2023-08-11T02:22:54.387Z,1.25
2023-08-11T02:25:15.383Z,1.10
2023-08-11T02:27:36.157Z,1.25
2023-08-11T02:29:56.181Z,1.30
2023-08-11T02:32:17.769Z,1.25
2023-08-11T02:34:38.394Z,1.58
2023-08-11T02:36:58.152Z,1.30
2023-08-11T02:39:18.726Z,1.10
2023-08-11T02:41:38.633Z,1.27
2023-08-11T02:43:58.779Z,1.10
2023-08-11T02:46:18.878Z,1.20
2023-08-11T02:48:40.208Z,1.00
2023-08-11T02:51:03.819Z,1.40
2023-08-11T02:53:24.157Z,1.20
2023-08-11T02:55:44.208Z,1.10
2023-08-11T02:58:04.094Z,1.20
2023-08-11T03:00:24.226Z,1.10
2023-08-11T03:02:48.289Z,1.10
2023-08-11T03:05:10.392Z,1.10
2023-08-11T03:07:31.641Z,1.10
2023-08-11T03:09:51.580Z,1.00
2023-08-11T03:12:11.786Z,1.10
2023-08-11T03:14:31.774Z,1.25
2023-08-11T03:16:51.326Z,1.00
2023-08-11T03:19:11.402Z,1.00
2023-08-11T03:21:31.528Z,1.05
2023-08-11T03:23:51.508Z,1.08
2023-08-11T03:26:11.090Z,1.08
2023-08-11T03:28:31.171Z,1.05
2023-08-11T03:30:50.814Z,1.27
2023-08-11T03:33:10.389Z,1.00
2023-08-11T03:35:33.851Z,1.10
2023-08-11T03:37:53.683Z,1.02
2023-08-11T03:40:14.615Z,1.48
2023-08-11T03:42:34.700Z,1.38
2023-08-11T03:44:54.898Z,1.10
2023-08-11T03:47:14.997Z,1.23
2023-08-11T03:49:35.386Z,1.30
2023-08-11T03:51:55.589Z,1.15
2023-08-11T03:54:15.714Z,1.33
2023-08-11T03:56:35.878Z,1.38
2023-08-11T03:58:56.189Z,1.27
2023-08-11T04:01:16.181Z,1.50
2023-08-11T04:03:36.335Z,1.30
2023-08-11T04:05:56.447Z,1.45
2023-08-11T04:08:16.463Z,1.10
2023-08-11T04:10:37.172Z,1.10
2023-08-11T04:12:57.300Z,1.45
2023-08-11T04:15:17.263Z,1.27
2023-08-11T04:17:37.343Z,1.08
2023-08-11T04:19:57.289Z,1.15
2023-08-11T04:22:22.812Z,1.20
2023-08-11T04:24:49.166Z,2.08
2023-08-11T04:27:09.101Z,1.10
2023-08-11T04:29:28.694Z,1.10
2023-08-11T04:31:48.469Z,1.13
2023-08-11T04:34:08.554Z,1.20
2023-08-11T04:36:28.631Z,1.33
2023-08-11T04:38:48.500Z,1.40
2023-08-11T04:41:08.580Z,1.10
2023-08-11T04:43:29.633Z,1.42
2023-08-11T04:45:49.629Z,1.60
2023-08-11T04:48:09.522Z,1.40
2023-08-11T04:50:29.662Z,1.30
2023-08-11T04:52:49.863Z,1.52
2023-08-11T04:55:10.161Z,1.30
2023-08-11T04:57:29.830Z,1.40
2023-08-11T04:59:49.569Z,1.30
2023-08-11T05:02:09.828Z,2.25
2023-08-11T05:04:29.687Z,1.38
2023-08-11T05:06:49.826Z,1.20
2023-08-11T05:09:09.890Z,1.40
2023-08-11T05:11:30.232Z,1.48
2023-08-11T05:13:50.001Z,1.38
2023-08-11T05:16:10.232Z,1.70
2023-08-11T05:18:41.844Z,1.45
2023-08-11T05:21:06.158Z,1.90
2023-08-11T05:23:25.875Z,1.30
2023-08-11T05:25:45.705Z,1.30
2023-08-11T05:28:05.799Z,1.30
2023-08-11T05:30:26.791Z,1.20
2023-08-11T05:32:46.886Z,1.48
2023-08-11T05:35:08.952Z,1.55
2023-08-11T05:37:29.192Z,1.63
2023-08-11T05:39:49.156Z,1.52
2023-08-11T05:42:09.231Z,1.30
2023-08-11T05:44:28.887Z,1.48
2023-08-11T05:46:48.492Z,1.30
2023-08-11T05:49:08.574Z,1.48
2023-08-11T05:51:28.621Z,1.00
2023-08-11T05:53:49.492Z,1.17
2023-08-11T05:56:10.454Z,1.50
2023-08-11T05:58:30.384Z,1.40
2023-08-11T06:00:52.323Z,1.17
2023-08-11T06:03:12.515Z,1.17
2023-08-11T06:05:32.510Z,0.95
2023-08-11T06:08:03.958Z,1.30
2023-08-11T06:10:27.099Z,1.10
2023-08-11T06:12:46.999Z,1.30
2023-08-11T06:15:07.167Z,1.00
2023-08-11T06:17:27.739Z,1.23
2023-08-11T06:19:47.962Z,1.10
2023-08-11T06:22:08.067Z,1.20
2023-08-11T06:24:29.606Z,1.58
2023-08-11T06:26:50.568Z,0.98
2023-08-11T06:29:10.689Z,1.00
2023-08-11T06:31:31.379Z,1.00
2023-08-11T06:33:52.028Z,1.10
2023-08-11T06:36:11.940Z,1.00
2023-08-11T06:38:32.943Z,1.00
2023-08-11T06:40:52.658Z,1.17
2023-08-11T06:43:12.301Z,1.00
2023-08-11T06:45:31.958Z,1.00
2023-08-11T06:47:52.120Z,0.90
2023-08-11T06:50:12.218Z,1.00
2023-08-11T06:52:32.283Z,1.00
2023-08-11T06:54:51.985Z,0.90
2023-08-11T06:57:12.551Z,0.80
2023-08-11T06:59:32.316Z,1.20
2023-08-11T07:01:52.252Z,0.90
2023-08-11T07:04:11.584Z,0.95
2023-08-11T07:06:31.679Z,0.80
2023-08-11T07:08:51.748Z,0.90
2023-08-11T07:11:11.936Z,0.90
2023-08-11T07:13:31.964Z,0.95
2023-08-11T07:15:55.387Z,0.82
2023-08-11T07:18:15.391Z,0.90
2023-08-11T07:20:35.280Z,0.85
2023-08-11T07:22:55.224Z,0.80
2023-08-11T07:25:14.910Z,0.80
2023-08-11T07:27:34.981Z,0.90
2023-08-11T07:29:54.552Z,0.70
2023-08-11T07:32:14.208Z,0.80
2023-08-11T07:34:33.941Z,1.38
2023-08-11T07:36:54.332Z,0.80
2023-08-11T07:41:37.050Z,0.80
2023-08-11T07:43:57.013Z,0.80
2023-08-11T07:46:17.461Z,0.80
2023-08-11T07:48:38.057Z,0.70
2023-08-11T07:50:57.756Z,0.80
2023-08-11T07:53:18.167Z,0.70
2023-08-11T07:55:38.472Z,0.80
2023-08-11T07:57:58.582Z,0.70
2023-08-11T08:00:21.443Z,0.80
2023-08-11T08:02:41.391Z,0.70
2023-08-11T08:05:11.672Z,0.80
2023-08-11T08:07:33.163Z,1.67
2023-08-11T08:09:52.781Z,0.70
2023-08-11T08:12:16.381Z,0.70
2023-08-11T08:14:36.169Z,0.63
2023-08-11T08:16:57.394Z,0.70
2023-08-11T08:19:19.410Z,0.60
2023-08-11T08:21:40.300Z,0.65
2023-08-11T08:24:00.638Z,0.70
2023-08-11T08:26:20.672Z,0.68
2023-08-11T08:28:40.478Z,0.70
2023-08-11T08:31:00.600Z,0.70
2023-08-11T08:33:20.892Z,0.50
2023-08-11T08:35:40.927Z,0.60
2023-08-11T08:38:00.610Z,0.60
2023-08-11T08:40:20.859Z,0.60
2023-08-11T08:42:41.893Z,0.70
2023-08-11T08:45:03.940Z,0.60
2023-08-11T08:47:24.927Z,0.85
2023-08-11T08:49:45.596Z,0.50
2023-08-11T08:52:06.888Z,0.57
2023-08-11T08:54:27.642Z,0.50
2023-08-11T08:56:47.567Z,0.47
2023-08-11T08:59:08.109Z,0.50
2023-08-11T09:01:29.462Z,0.50
2023-08-11T09:03:50.152Z,0.50
2023-08-11T09:06:11.900Z,0.50
2023-08-11T09:08:39.567Z,0.98
2023-08-11T09:10:59.338Z,0.60
2023-08-11T09:13:20.377Z,0.40
2023-08-11T09:15:40.184Z,0.50
2023-08-11T09:18:00.387Z,0.50
2023-08-11T09:20:20.608Z,0.40
2023-08-11T09:22:41.018Z,0.50
2023-08-11T09:25:01.012Z,0.40
2023-08-11T09:27:22.280Z,0.50
2023-08-11T09:29:42.313Z,0.47
2023-08-11T09:32:04.956Z,0.40
2023-08-11T09:34:24.854Z,0.70
2023-08-11T09:36:46.321Z,0.50
2023-08-11T09:39:09.973Z,0.52
2023-08-11T09:41:29.652Z,0.50
2023-08-11T09:43:49.799Z,0.40
2023-08-11T09:46:09.921Z,0.40
2023-08-11T09:48:29.909Z,0.50
2023-08-11T09:50:52.082Z,0.40
2023-08-11T09:53:12.179Z,0.40
2023-08-11T09:55:36.094Z,0.50
2023-08-11T09:57:57.019Z,0.43
2023-08-11T10:00:20.104Z,0.40
2023-08-11T10:02:47.118Z,0.40
2023-08-11T10:05:09.285Z,0.40
2023-08-11T10:09:59.650Z,0.40
2023-08-11T10:12:20.897Z,0.40
2023-08-11T10:14:41.548Z,0.40
2023-08-11T10:17:03.927Z,0.80
2023-08-11T10:21:43.888Z,0.40
2023-08-11T10:24:05.081Z,0.40
2023-08-11T10:26:25.238Z,0.50
2023-08-11T10:28:45.859Z,0.40
2023-08-11T10:31:05.822Z,0.50
2023-08-11T10:33:30.350Z,0.40
2023-08-11T10:35:52.499Z,0.40
2023-08-11T10:38:12.740Z,0.40
2023-08-11T10:40:38.986Z,0.40
2023-08-11T10:43:02.117Z,0.40
2023-08-11T10:45:23.135Z,0.40
2023-08-11T10:47:54.406Z,0.50
2023-08-11T10:50:15.290Z,0.40
2023-08-11T10:52:35.295Z,0.50
2023-08-11T10:54:59.622Z,0.40
2023-08-11T10:57:21.384Z,0.40
2023-08-11T10:59:41.268Z,0.40
2023-08-11T11:02:02.025Z,0.40
2023-08-11T11:04:30.325Z,0.40
2023-08-11T11:06:53.729Z,0.30
2023-08-11T11:09:15.167Z,0.40
2023-08-11T11:11:37.281Z,0.33
2023-08-11T11:13:57.982Z,0.40
2023-08-11T11:16:18.882Z,0.30
2023-08-11T11:18:40.501Z,0.40
2023-08-11T11:21:00.190Z,0.30
2023-08-11T11:23:20.244Z,0.30
2023-08-11T11:25:40.520Z,0.40
2023-08-11T11:28:00.324Z,0.40
2023-08-11T11:30:20.611Z,0.40
2023-08-11T11:32:42.722Z,0.30
2023-08-11T11:35:04.231Z,0.40
2023-08-11T11:37:25.614Z,0.40
2023-08-11T11:39:46.183Z,0.40
2023-08-11T11:42:09.325Z,0.40
2023-08-11T11:44:29.803Z,0.40
2023-08-11T11:46:49.981Z,0.38
2023-08-11T11:49:23.585Z,0.40
2023-08-11T11:51:45.289Z,0.40
2023-08-11T11:54:05.749Z,0.40
2023-08-11T11:56:29.018Z,0.38
2023-08-11T11:58:51.872Z,0.40
2023-08-11T12:01:28.687Z,0.30
2023-08-11T12:03:50.283Z,0.30
2023-08-11T12:06:09.996Z,0.30
2023-08-11T12:08:29.641Z,0.30
2023-08-11T12:10:50.212Z,0.30
2023-08-11T12:13:10.123Z,0.30
2023-08-11T12:15:31.860Z,0.30
2023-08-11T12:17:53.621Z,0.30
2023-08-11T12:22:34.748Z,0.35
2023-08-11T12:24:54.645Z,0.30
2023-08-11T12:27:14.519Z,0.30
2023-08-11T12:29:34.769Z,0.30
2023-08-11T12:31:54.517Z,0.30
2023-08-11T12:34:14.122Z,0.30
2023-08-11T12:36:33.949Z,0.30
2023-08-11T12:38:53.700Z,0.30
2023-08-11T12:41:13.952Z,0.30
2023-08-11T12:43:34.074Z,0.30
2023-08-11T12:45:54.233Z,0.30
2023-08-11T12:48:15.656Z,0.30
2023-08-11T12:50:39.466Z,0.32
2023-08-11T12:53:00.562Z,0.30
2023-08-11T12:55:20.516Z,0.30
2023-08-11T12:57:40.552Z,0.30
2023-08-11T13:00:00.306Z,0.32
2023-08-11T13:02:20.422Z,0.30
2023-08-11T13:04:40.033Z,0.28
2023-08-11T13:07:01.029Z,0.32
2023-08-11T13:09:21.336Z,0.30
2023-08-11T13:11:41.128Z,0.30
2023-08-11T13:14:00.772Z,0.32
2023-08-11T13:16:20.429Z,0.30
2023-08-11T13:18:40.510Z,0.38
2023-08-11T13:21:00.095Z,0.30
2023-08-11T13:23:20.373Z,0.30
2023-08-11T13:25:40.285Z,0.30
2023-08-11T13:28:00.239Z,0.40
2023-08-11T13:30:21.678Z,0.40
2023-08-11T13:32:42.803Z,0.30
2023-08-11T13:35:05.287Z,0.40
2023-08-11T13:37:25.018Z,0.30
2023-08-11T13:39:44.535Z,0.30
2023-08-11T13:42:06.187Z,0.30
2023-08-11T13:44:25.867Z,0.40
2023-08-11T13:46:45.678Z,0.30
2023-08-11T13:49:06.135Z,0.30
2023-08-11T13:51:26.399Z,0.30
2023-08-11T13:53:46.697Z,0.30
2023-08-11T13:56:06.530Z,0.30
2023-08-11T13:58:26.327Z,0.30
2023-08-11T14:00:47.790Z,0.30
2023-08-11T14:03:07.375Z,0.30
2023-08-11T14:05:29.807Z,0.30
2023-08-11T14:07:50.244Z,0.30
2023-08-11T14:10:10.535Z,0.30
2023-08-11T14:12:30.292Z,0.40
2023-08-11T14:14:50.506Z,0.30
2023-08-11T14:17:10.542Z,0.30
2023-08-11T14:19:30.197Z,0.30
2023-08-11T14:21:49.840Z,0.35
2023-08-11T14:24:09.403Z,0.30
2023-08-11T14:26:29.600Z,0.30
2023-08-11T14:28:49.600Z,0.40
2023-08-11T14:31:09.190Z,0.40
2023-08-11T14:33:29.045Z,0.30
2023-08-11T14:35:49.209Z,0.30
2023-08-11T14:38:09.479Z,0.40
2023-08-11T14:40:29.570Z,0.60
2023-08-11T14:42:50.255Z,0.40
2023-08-11T14:45:10.289Z,0.40
2023-08-11T14:47:30.200Z,0.47
2023-08-11T14:49:50.410Z,0.40
2023-08-11T14:52:14.412Z,0.40
2023-08-11T14:54:34.795Z,0.35
2023-08-11T14:56:57.001Z,0.40
2023-08-11T14:59:16.659Z,0.35
2023-08-11T15:01:36.219Z,0.40
2023-08-11T15:03:55.821Z,0.30
2023-08-11T15:06:15.584Z,0.40
2023-08-11T15:08:35.701Z,0.70
2023-08-11T15:10:56.065Z,0.40
2023-08-11T15:13:17.239Z,0.40
2023-08-11T15:15:37.528Z,0.40
2023-08-11T15:17:57.591Z,0.40
2023-08-11T15:20:19.429Z,0.47
2023-08-11T15:22:41.815Z,0.35
2023-08-11T15:25:04.650Z,0.40
2023-08-11T15:27:24.645Z,0.40
2023-08-11T15:29:44.248Z,0.50
2023-08-11T15:32:04.546Z,0.50
2023-08-11T15:34:24.711Z,0.40
2023-08-11T15:36:44.902Z,0.40
2023-08-11T15:39:05.052Z,0.40
2023-08-11T15:41:25.544Z,0.40
2023-08-11T15:43:45.687Z,0.40
2023-08-11T15:46:06.143Z,0.40
2023-08-11T15:48:27.796Z,0.40
2023-08-11T15:50:47.808Z,0.50
2023-08-11T15:53:08.028Z,0.38
2023-08-11T15:55:36.469Z,0.40
2023-08-11T15:57:56.758Z,0.40
2023-08-11T16:00:17.178Z,0.40
2023-08-11T16:02:36.986Z,0.40
2023-08-11T16:04:57.106Z,0.40
2023-08-11T16:07:17.114Z,0.40
2023-08-11T16:09:37.656Z,0.40
2023-08-11T16:11:57.417Z,0.40
2023-08-11T16:14:17.383Z,0.40
2023-08-11T16:16:37.471Z,0.47
2023-08-11T16:18:57.876Z,0.40
2023-08-11T16:21:18.094Z,0.40
2023-08-11T16:23:38.594Z,0.40
2023-08-11T16:25:58.662Z,0.50
2023-08-11T16:28:18.551Z,0.50
2023-08-11T16:30:38.275Z,0.50
2023-08-11T16:32:58.657Z,0.50
2023-08-11T16:35:18.707Z,0.50
2023-08-11T16:37:39.212Z,0.50
2023-08-11T16:39:59.564Z,0.50
2023-08-11T16:42:19.951Z,0.50
2023-08-11T16:44:40.066Z,0.45
2023-08-11T16:47:00.070Z,0.50
2023-08-11T16:49:20.469Z,0.50
2023-08-11T16:51:40.265Z,0.60
2023-08-11T16:54:00.369Z,0.50
2023-08-11T16:56:21.724Z,0.60
2023-08-11T16:58:41.530Z,0.50
2023-08-11T17:01:01.125Z,0.50
2023-08-11T17:03:22.286Z,0.50
2023-08-11T17:05:42.229Z,0.52
2023-08-11T17:08:01.785Z,0.55
2023-08-11T17:10:21.894Z,0.50
2023-08-11T17:12:41.496Z,0.50
2023-08-11T17:15:01.322Z,0.50
2023-08-11T17:17:21.408Z,0.50
2023-08-11T17:19:41.594Z,0.50
2023-08-11T17:22:01.337Z,0.60
2023-08-11T17:24:21.930Z,0.50
2023-08-11T17:26:41.593Z,0.50
2023-08-11T17:29:01.609Z,0.50
2023-08-11T17:31:22.748Z,0.57
2023-08-11T17:33:42.675Z,0.50
2023-08-11T17:36:03.176Z,0.50
2023-08-11T17:38:24.388Z,0.50
2023-08-11T17:40:44.464Z,0.50
2023-08-11T17:43:04.258Z,0.50
2023-08-11T17:45:24.489Z,0.52
2023-08-11T17:47:46.950Z,0.50
2023-08-11T17:50:07.161Z,0.50
2023-08-11T17:52:26.991Z,0.60
2023-08-11T17:54:47.133Z,0.60
2023-08-11T17:57:07.218Z,0.60
2023-08-11T17:59:27.465Z,0.50
2023-08-11T18:01:47.622Z,0.50
2023-08-11T18:04:08.390Z,0.55
2023-08-11T18:06:28.492Z,0.60
2023-08-11T18:08:48.617Z,0.60
2023-08-11T18:11:08.293Z,0.50
2023-08-11T18:13:27.915Z,0.50
2023-08-11T18:15:47.987Z,0.50
2023-08-11T18:18:08.329Z,0.60
2023-08-11T18:20:28.083Z,0.60
2023-08-11T18:22:48.271Z,0.60
2023-08-11T18:25:08.715Z,0.60
2023-08-11T18:27:31.243Z,0.60
2023-08-11T18:29:51.988Z,0.50
2023-08-11T18:32:12.052Z,0.60
2023-08-11T18:34:32.419Z,0.60
2023-08-11T18:36:52.412Z,0.60
2023-08-11T18:39:12.527Z,0.60
2023-08-11T18:41:32.565Z,0.60
2023-08-11T18:43:52.292Z,0.57
2023-08-11T18:46:12.125Z,0.60
2023-08-11T18:48:32.282Z,0.60
2023-08-11T18:50:52.838Z,0.60
2023-08-11T18:53:12.692Z,0.60
2023-08-11T18:55:32.842Z,0.60
2023-08-11T18:57:52.770Z,0.60
2023-08-11T19:00:13.634Z,0.60
2023-08-11T19:02:33.452Z,0.50
2023-08-11T19:04:53.741Z,0.60
2023-08-11T19:07:13.481Z,0.70
2023-08-11T19:09:34.219Z,0.60
2023-08-11T19:11:54.321Z,0.60
2023-08-11T19:14:14.938Z,0.60
2023-08-11T19:16:36.880Z,0.60
2023-08-11T19:18:56.689Z,0.60
2023-08-11T19:21:16.360Z,0.60
2023-08-11T19:23:36.662Z,0.60
2023-08-11T19:25:56.770Z,0.70
2023-08-11T19:28:16.975Z,0.70
2023-08-11T19:30:37.366Z,0.70
2023-08-11T19:32:58.224Z,0.60
2023-08-11T19:35:18.526Z,0.68
2023-08-11T19:37:38.677Z,0.60
2023-08-11T19:39:58.378Z,0.63
2023-08-11T19:42:18.509Z,0.70
2023-08-11T19:44:40.572Z,0.68
2023-08-11T19:47:00.597Z,0.70
2023-08-11T19:49:21.943Z,0.70
2023-08-11T19:51:44.727Z,0.70
2023-08-11T19:54:04.858Z,0.70
2023-08-11T19:56:25.409Z,0.70
2023-08-11T19:58:45.167Z,0.80
2023-08-11T20:01:06.360Z,0.70
2023-08-11T20:03:26.650Z,0.70
2023-08-11T20:05:47.156Z,0.70
2023-08-11T20:08:07.354Z,0.70
2023-08-11T20:10:26.972Z,0.70
2023-08-11T20:12:47.179Z,0.70
2023-08-11T20:15:08.224Z,0.70
2023-08-11T20:17:27.869Z,0.80
2023-08-11T20:19:47.621Z,0.70
2023-08-11T20:22:07.861Z,0.82
2023-08-11T20:24:27.996Z,0.70
2023-08-11T20:26:56.008Z,0.70
2023-08-11T20:29:15.912Z,0.60
2023-08-11T20:31:36.089Z,0.70
2023-08-11T20:33:57.262Z,0.70
2023-08-11T20:36:16.927Z,0.70
2023-08-11T20:38:39.079Z,0.70
2023-08-11T20:40:59.778Z,0.80
2023-08-11T20:43:19.489Z,0.70
2023-08-11T20:45:39.211Z,0.80
2023-08-11T20:48:00.398Z,0.70
2023-08-11T20:50:20.522Z,0.70
2023-08-11T20:52:40.695Z,0.70
2023-08-11T20:55:01.959Z,0.70
2023-08-11T20:57:21.694Z,0.70
2023-08-11T20:59:41.895Z,0.80
2023-08-11T21:02:02.190Z,0.73
2023-08-11T21:04:21.786Z,0.80
2023-08-11T21:06:42.044Z,0.70
2023-08-11T21:09:02.353Z,0.70
2023-08-11T21:11:22.567Z,0.80
2023-08-11T21:13:42.463Z,0.70
2023-08-11T21:16:02.617Z,0.80
2023-08-11T21:18:22.833Z,0.80
2023-08-11T21:20:43.215Z,0.70
2023-08-11T21:23:04.797Z,0.85
2023-08-11T21:25:24.746Z,0.80
2023-08-11T21:27:44.982Z,0.70
2023-08-11T21:30:05.874Z,0.90
2023-08-11T21:32:25.775Z,0.75
2023-08-11T21:34:46.416Z,1.27
2023-08-11T21:37:06.531Z,0.80
2023-08-11T21:39:26.546Z,0.80
2023-08-11T21:41:46.231Z,0.80
2023-08-11T21:44:06.351Z,0.90
2023-08-11T21:46:26.455Z,0.90
2023-08-11T21:48:46.380Z,0.90
2023-08-11T21:51:06.353Z,0.90
2023-08-11T21:53:26.337Z,0.80
2023-08-11T21:55:46.432Z,0.90
2023-08-11T21:58:05.982Z,0.80
2023-08-11T22:00:26.048Z,0.80
2023-08-11T22:02:46.050Z,0.98
2023-08-11T22:05:06.463Z,0.88
2023-08-11T22:07:26.375Z,1.00
2023-08-11T22:09:46.371Z,0.80
2023-08-11T22:12:06.854Z,0.90
2023-08-11T22:14:26.846Z,0.98
2023-08-11T22:16:47.727Z,0.90
2023-08-11T22:19:07.877Z,0.90
2023-08-11T22:21:28.830Z,0.80
2023-08-11T22:23:48.618Z,1.00
2023-08-11T22:26:08.884Z,0.90
2023-08-11T22:28:29.058Z,1.00
2023-08-11T22:30:50.515Z,0.93
2023-08-11T22:33:10.615Z,0.90
2023-08-11T22:35:30.476Z,0.90
2023-08-11T22:37:50.106Z,1.17
2023-08-11T22:40:10.221Z,0.90
2023-08-11T22:42:30.111Z,1.33
2023-08-11T22:44:50.538Z,0.90
2023-08-11T22:47:10.753Z,0.90
2023-08-11T22:49:31.083Z,0.80
2023-08-11T22:51:51.199Z,0.90
2023-08-11T22:54:11.819Z,0.90
2023-08-11T22:56:32.397Z,0.90
2023-08-11T22:58:52.612Z,1.00
2023-08-11T23:01:14.807Z,0.90
2023-08-11T23:03:35.634Z,0.90
2023-08-11T23:05:57.535Z,0.90
2023-08-11T23:08:19.424Z,1.02
2023-08-11T23:10:41.048Z,0.90
2023-08-11T23:13:02.547Z,1.13
2023-08-11T23:15:24.343Z,1.10
2023-08-11T23:17:45.926Z,1.00
2023-08-11T23:20:10.068Z,1.08
2023-08-11T23:22:31.683Z,0.90
2023-08-11T23:24:53.771Z,0.82
2023-08-11T23:27:18.350Z,1.00
2023-08-11T23:29:40.350Z,0.98
2023-08-11T23:32:02.052Z,0.93
2023-08-11T23:34:23.897Z,0.90
2023-08-11T23:36:45.374Z,0.90
2023-08-11T23:39:09.602Z,1.00
2023-08-11T23:41:30.999Z,0.93
2023-08-11T23:43:52.468Z,1.00
2023-08-11T23:46:16.748Z,1.00
2023-08-11T23:48:38.854Z,0.90
2023-08-11T23:51:00.487Z,0.90
2023-08-11T23:53:21.994Z,1.00
2023-08-11T23:55:43.526Z,0.90
2023-08-11T23:58:05.245Z,1.00
